Data for 03/12/2018

Time Sea-Level Adjusted Pressure Absolute Pressure Temperature Relative Humidity Dew Point   
(mb) (inHg) (mb) (inHg) (C) (F) (%) (C) (F)
00:05 1025 30.27 854 25.22 -0.5 31.1 45 -11 12.2
00:10 1025 30.27 854 25.22 -0.6 31 45 -11.1 12.1
00:15 1025 30.27 854 25.22 -0.4 31.3 43 -11.5 11.3
00:20 1025 30.27 854 25.22 -0.4 31.2 44 -11.4 11.5
00:25 1025 30.27 854 25.22 -0.3 31.5 41 -12 10.5
00:30 1025 30.27 854 25.22 -0.2 31.6 43 -11.5 11.4
00:35 1025 30.27 854 25.22 -0.4 31.2 44 -11.2 11.8
00:40 1025 30.27 854 25.22 -0.6 31 44 -11.5 11.3
00:45 1025 30.27 854 25.22 -0.5 31.2 42 -12 10.5
00:50 1025 30.27 854 25.22 -0.4 31.3 42 -11.8 10.8
00:55 1025 30.27 854 25.22 -0.4 31.2 40 -12.6 9.4
01:00 1025 30.27 854 25.22 -0.1 31.7 38 -12.7 9.1
01:05 1025 30.27 854 25.22 0 32 38 -12.5 9.4
01:10 1025 30.27 854 25.22 0.1 32.2 41 -11.8 10.8
01:15 1025 30.27 854 25.22 -0.1 31.8 42 -11.5 11.3
01:20 1025 30.27 854 25.22 -0.7 30.8 44 -11.4 11.5
01:25 1025 30.27 854 25.22 -0.9 30.5 45 -11.2 11.8
01:30 1025 30.27 854 25.22 -1 30.1 45 -11.6 11.1
01:35 1025 30.27 854 25.22 -1.2 29.9 45 -11.6 11
01:40 1025 30.27 854 25.22 -1.1 30 44 -11.9 10.6
01:45 1025 30.27 854 25.22 -0.9 30.4 43 -11.8 10.7
01:50 1025 30.27 854 25.22 -0.8 30.5 42 -12.3 9.9
01:55 1025 30.27 854 25.22 -0.8 30.5 41 -12.3 9.8
02:00 1025 30.27 854 25.22 -0.8 30.5 39 -13.2 8.3
02:05 1025 30.27 854 25.22 -0.8 30.6 38 -13.5 7.8
02:10 1025 30.27 854 25.22 -0.7 30.7 38 -13.3 8.1
02:15 1025 30.27 854 25.22 -0.8 30.5 39 -13.1 8.4
02:20 1025 30.27 854 25.22 -0.9 30.4 38 -13.4 7.8
02:25 1025 30.27 854 25.22 -1 30.1 40 -13 8.5
02:30 1025 30.27 854 25.22 -1.4 29.6 41 -13.1 8.5
02:35 1025 30.27 854 25.22 -1.4 29.4 39 -13.6 7.4
02:40 1025 30.27 854 25.22 -1.3 29.6 39 -13.7 7.4
02:45 1025 30.27 854 25.22 -1.4 29.4 41 -13.2 8.3
02:50 1025 30.27 854 25.22 -1.7 28.9 42 -13 8.6
02:55 1025 30.27 854 25.22 -1.8 28.7 43 -12.9 8.8
03:00 1025 30.27 854 25.22 -1.8 28.8 43 -12.8 9
03:05 1025 30.27 854 25.22 -1.7 28.9 42 -12.9 8.7
03:10 1025 30.27 854 25.22 -1.7 28.9 43 -12.8 8.9
03:15 1025 30.27 854 25.22 -1.7 28.9 42 -12.9 8.8
03:20 1025 30.27 854 25.22 -1.8 28.7 43 -12.9 8.8
03:25 1025 30.27 854 25.22 -1.9 28.6 44 -12.6 9.3
03:30 1025 30.27 854 25.22 -2 28.4 44 -12.6 9.3
03:35 1025 30.27 854 25.22 -2 28.4 43 -13 8.5
03:40 1025 30.27 854 25.22 -1.8 28.7 42 -13.2 8.3
03:45 1025 30.27 854 25.22 -1.6 29.1 40 -13.4 7.8
03:50 1025 30.27 854 25.22 -1.3 29.7 39 -13.5 7.6
03:55 1025 30.27 854 25.22 -1.2 29.9 41 -13 8.7
04:00 1025 30.27 854 25.22 -1.3 29.7 39 -13.5 7.7
04:05 1025 30.27 854 25.22 -1.1 30.1 40 -13 8.6
04:10 1025 30.27 854 25.22 -1.5 29.4 42 -12.7 9.1
04:15 1025 30.27 854 25.22 -1.4 29.5 41 -13.2 8.3
04:20 1025 30.27 854 25.22 -1.3 29.6 42 -12.6 9.3
04:25 1025 30.27 854 25.22 -1.6 29.2 43 -12.7 9.1
04:30 1025 30.27 854 25.22 -1.7 29 43 -12.8 9
04:35 1025 30.27 854 25.22 -1.8 28.8 44 -12.6 9.4
04:40 1025 30.27 854 25.22 -2 28.5 45 -12.4 9.7
04:45 1025 30.27 854 25.22 -2.1 28.3 45 -12.5 9.5
04:50 1025 30.27 854 25.22 -2 28.3 45 -12.5 9.6
04:55 1025 30.27 854 25.22 -2.1 28.2 46 -12.3 9.9
05:00 1025 30.27 854 25.22 -2.4 27.6 48 -12.1 10.2
05:05 1025 30.27 854 25.22 -2.6 27.3 48 -12.2 10
05:10 1025 30.27 854 25.22 -2.6 27.4 48 -12.2 10
05:15 1025 30.27 854 25.22 -2.4 27.7 48 -12.1 10.3
05:20 1025 30.27 854 25.22 -2.5 27.6 47 -12.2 10
05:25 1025 30.27 854 25.22 -2.4 27.6 47 -12.2 10
05:30 1025 30.27 854 25.22 -2.4 27.7 46 -12.4 9.6
05:35 1025 30.27 854 25.22 -2.1 28.2 46 -12.3 9.8
05:40 1025 30.27 854 25.22 -2.1 28.2 46 -12.3 9.9
05:45 1025 30.27 854 25.22 -2 28.4 45 -12.4 9.7
05:50 1025 30.27 854 25.22 -1.9 28.6 45 -12.2 10.1
05:55 1025 30.27 854 25.22 -2 28.4 46 -12.2 10.1
06:00 1025 30.27 854 25.22 -2.1 28.3 46 -12.1 10.1
06:05 1025 30.27 854 25.22 -2.1 28.2 47 -12 10.3
06:10 1025 30.27 854 25.22 -2.2 28 47 -12.1 10.3
06:15 1025 30.27 854 25.22 -1.9 28.5 46 -12.1 10.3
06:20 1025 30.27 854 25.22 -1.7 28.9 45 -12.1 10.3
06:25 1025 30.27 854 25.22 -1.6 29.1 44 -12.4 9.7
06:30 1025 30.27 854 25.22 -1.8 28.7 46 -12 10.4
06:35 1025 30.27 854 25.22 -2.2 28 48 -11.9 10.6
06:40 1025 30.27 854 25.22 -2.3 27.8 48 -11.9 10.5
06:45 1025 30.27 854 25.22 -2.2 28.1 47 -12 10.4
06:50 1025 30.27 854 25.22 -2.1 28.2 46 -12.1 10.2
06:55 1025 30.27 854 25.22 -2.2 28 48 -11.8 10.7
07:00 1025 30.27 854 25.22 -2.1 28.2 46 -12.3 9.9
07:05 1025 30.27 854 25.22 -2.2 28.1 46 -12.2 10
07:10 1025 30.27 854 25.22 -2.6 27.4 49 -11.9 10.7
07:15 1025 30.27 855 25.25 -2.8 27 49 -12 10.4
07:20 1025 30.27 855 25.25 -3 26.7 51 -11.8 10.7
07:25 1025 30.27 855 25.25 -3.1 26.5 52 -11.7 10.9
07:30 1025 30.27 855 25.25 -3.1 26.4 52 -11.7 10.9
07:35 1025 30.27 855 25.25 -2.8 26.9 51 -11.7 10.9
07:40 1025 30.27 855 25.25 -2.8 26.9 51 -11.7 11
07:45 1025 30.27 855 25.25 -3.1 26.4 51 -11.9 10.6
07:50 1026 30.3 855 25.25 -2.8 26.9 49 -12.2 10
07:55 1026 30.3 855 25.25 -2.7 27.1 48 -12.2 10.1
08:00 1026 30.3 855 25.25 -2.8 27 48 -12.4 9.6
08:05 1026 30.3 855 25.25 -2.7 27.1 48 -12.3 9.9
08:10 1026 30.3 855 25.25 -2.8 27 48 -12.2 10
08:15 1026 30.3 855 25.25 -2.8 27 49 -12 10.4
08:20 1026 30.3 855 25.25 -2.7 27.2 50 -11.7 10.9
08:25 1026 30.3 855 25.25 -2.3 27.8 49 -11.6 11
08:30 1026 30.3 855 25.25 -2.3 27.9 49 -11.5 11.3
08:35 1026 30.3 855 25.25 -2.3 27.8 50 -11.5 11.3
08:40 1026 30.3 855 25.25 -2.3 27.9 50 -11.4 11.4
08:45 1026 30.3 855 25.25 -2.2 28 49 -11.5 11.2
08:50 1026 30.3 855 25.25 -2.2 28.1 48 -11.7 11
08:55 1026 30.3 855 25.25 -1.8 28.8 46 -11.8 10.7
09:00 1026 30.3 855 25.25 -1.6 29.2 46 -11.8 10.8
09:05 1026 30.3 855 25.25 -1.6 29.2 47 -11.4 11.5
09:10 1026 30.3 855 25.25 -1.3 29.6 46 -11.5 11.2
09:15 1026 30.3 855 25.25 -1 30.3 44 -11.6 11.1
09:20 1026 30.3 855 25.25 -0.8 30.6 45 -11.4 11.4
09:25 1026 30.3 855 25.25 -0.8 30.5 44 -11.6 11.2
09:30 1026 30.3 855 25.25 -0.5 31 44 -11.4 11.5
09:35 1026 30.3 855 25.25 0.2 32.3 42 -11.4 11.4
09:40 1026 30.3 855 25.25 0.3 32.5 42 -11.2 11.8
09:45 1026 30.3 855 25.25 0.4 32.7 43 -10.9 12.3
09:50 1026 30.3 855 25.25 1 33.8 40 -11.2 11.9
09:55 1026 30.3 855 25.25 1.6 34.9 40 -10.7 12.8
10:00 1026 30.3 855 25.25 2.1 35.9 40 -10.1 13.8
10:05 1026 30.3 855 25.25 2.7 36.9 39 -10 14
10:10 1026 30.3 855 25.25 2.7 36.9 44 -8.4 16.9
10:15 1026 30.3 855 25.25 2.9 37.2 42 -8.8 16.2
10:20 1026 30.3 855 25.25 3.3 38 43 -8.2 17.3
10:25 1026 30.3 855 25.25 3.8 38.8 42 -8 17.7
10:30 1026 30.3 855 25.25 4.1 39.5 41 -7.9 17.8
10:35 1026 30.3 855 25.25 3.3 37.9 42 -8.3 17.1
10:40 1026 30.3 855 25.25 3.9 39 40 -8.5 16.8
10:45 1026 30.3 855 25.25 4.2 39.5 40 -8.2 17.3
10:50 1026 30.3 855 25.25 3.7 38.7 43 -7.7 18.1
10:55 1026 30.3 856 25.28 3.2 37.8 44 -7.8 18
11:00 1026 30.3 856 25.28 3.6 38.5 42 -8.1 17.4
11:05 1026 30.3 856 25.28 3.7 38.7 43 -7.9 17.8
11:10 1026 30.3 856 25.28 4 39.2 43 -7.6 18.3
11:15 1026 30.3 856 25.28 4 39.2 43 -7.5 18.5
11:20 1026 30.3 856 25.28 4 39.2 43 -7.5 18.5
11:25 1026 30.3 856 25.28 4.1 39.3 43 -7.4 18.7
11:30 1026 30.3 856 25.28 4.9 40.8 40 -7.8 18
11:35 1026 30.3 856 25.28 5.1 41.3 39 -7.8 18
11:40 1026 30.3 855 25.25 5.5 41.8 40 -7.1 19.1
11:45 1026 30.3 855 25.25 5.5 42 38 -7.6 18.3
11:50 1026 30.3 855 25.25 6.1 43 36 -7.7 18.2
11:55 1026 30.3 855 25.25 6 42.7 38 -7.3 18.8
12:00 1026 30.3 855 25.25 6.1 43 37 -7.6 18.3
12:05 1026 30.3 855 25.25 6.5 43.7 37 -7.2 19
12:10 1026 30.3 855 25.25 6.9 44.4 35 -7.6 18.4
12:15 1026 30.3 855 25.25 6.9 44.4 35 -7.7 18.2
12:20 1026 30.3 855 25.25 7.1 44.7 35 -7.3 18.9
12:25 1026 30.3 855 25.25 6.9 44.4 36 -7.2 19
12:30 1026 30.3 855 25.25 6.6 44 38 -6.5 20.3
12:35 1026 30.3 855 25.25 6.6 43.9 36 -7.2 19
12:40 1026 30.3 855 25.25 6.1 43 39 -6.8 19.7
12:45 1026 30.3 855 25.25 5.7 42.2 41 -6.6 20.1
12:50 1026 30.3 855 25.25 5.5 42 41 -6.7 20
12:55 1026 30.3 855 25.25 5.8 42.4 40 -6.8 19.8
13:00 1026 30.3 855 25.25 6.1 42.9 40 -6.5 20.3
13:05 1026 30.3 855 25.25 6.2 43.1 41 -6.1 21
13:10 1026 30.3 855 25.25 5.8 42.5 43 -5.9 21.4
13:15 1026 30.3 855 25.25 5.8 42.4 42 -6.2 20.8
13:20 1026 30.3 855 25.25 6.2 43.1 40 -6.5 20.4
13:25 1026 30.3 855 25.25 6.4 43.6 39 -6.4 20.5
13:30 1026 30.3 855 25.25 6.5 43.7 39 -6.5 20.3
13:35 1026 30.3 855 25.25 6.3 43.4 39 -6.6 20.2
13:40 1026 30.3 855 25.25 6.7 44.1 38 -6.7 20
13:45 1026 30.3 855 25.25 6.6 43.8 38 -6.7 20
13:50 1026 30.3 855 25.25 6.9 44.5 36 -7 19.3
13:55 1026 30.3 855 25.25 7 44.6 38 -6.5 20.4
14:00 1026 30.3 855 25.25 6.6 43.8 39 -6.4 20.4
14:05 1026 30.3 855 25.25 6.9 44.5 37 -6.8 19.7
14:10 1026 30.3 855 25.25 6.8 44.3 38 -6.6 20.1
14:15 1025 30.27 855 25.25 7 44.6 37 -6.7 19.9
14:20 1025 30.27 855 25.25 6.5 43.8 39 -6.4 20.5
14:25 1025 30.27 855 25.25 6 42.7 40 -6.7 19.9
14:30 1025 30.27 855 25.25 5.8 42.5 39 -7.2 19
14:35 1025 30.27 855 25.25 6.1 43 39 -6.8 19.7
14:40 1025 30.27 854 25.22 6 42.9 37 -7.6 18.2
14:45 1025 30.27 854 25.22 6.5 43.7 36 -7.3 18.8
14:50 1025 30.27 854 25.22 6.6 43.9 37 -7.2 19
14:55 1025 30.27 854 25.22 6.7 44.1 36 -7.1 19.1
15:00 1025 30.27 854 25.22 7.2 44.9 35 -7.2 19.1
15:05 1025 30.27 854 25.22 7.2 45 38 -6.1 21
15:10 1025 30.27 854 25.22 7.3 45.1 36 -6.9 19.6
15:15 1025 30.27 854 25.22 7.7 45.9 33 -7.4 18.7
15:20 1025 30.27 854 25.22 7.8 46.1 34 -6.9 19.5
15:25 1025 30.27 854 25.22 7.7 45.9 34 -7.3 18.8
15:30 1025 30.27 854 25.22 7.6 45.6 35 -7.1 19.2
15:35 1025 30.27 854 25.22 7.7 45.8 34 -7.4 18.7
15:40 1025 30.27 854 25.22 7.9 46.2 33 -7.2 19
15:45 1025 30.27 854 25.22 7.9 46.2 35 -6.6 20.1
15:50 1025 30.27 854 25.22 8.1 46.5 33 -7.1 19.1
15:55 1025 30.27 854 25.22 8.1 46.6 33 -7.1 19.2
16:00 1025 30.27 854 25.22 8.3 46.9 32 -7.5 18.6
16:05 1025 30.27 854 25.22 8.6 47.4 32 -7.1 19.2
16:10 1025 30.27 854 25.22 7.8 46 34 -7.2 19
16:15 1025 30.27 854 25.22 7.9 46.2 33 -7.6 18.4
16:20 1025 30.27 854 25.22 8.3 46.9 31 -7.8 18
16:25 1025 30.27 854 25.22 8.6 47.5 33 -6.7 19.9
16:30 1025 30.27 854 25.22 8.4 47.1 33 -7 19.4
16:35 1025 30.27 854 25.22 8 46.4 31 -8.2 17.3
16:40 1025 30.27 854 25.22 8.5 47.3 31 -7.7 18.2
16:45 1025 30.27 854 25.22 8.8 47.8 30 -7.7 18.1
16:50 1025 30.27 854 25.22 8.3 46.9 31 -7.9 17.7
16:55 1024 30.24 854 25.22 8.1 46.6 30 -8.3 17.1
17:00 1024 30.24 854 25.22 8.6 47.5 30 -8.2 17.3
17:05 1024 30.24 854 25.22 8.8 47.8 30 -7.8 17.9
17:10 1024 30.24 854 25.22 9 48.1 27 -9 15.8
17:15 1024 30.24 854 25.22 9.1 48.3 26 -9.4 15.1
17:20 1024 30.24 854 25.22 8.9 48 28 -8.9 16.1
17:25 1024 30.24 853 25.19 8.6 47.4 28 -8.8 16.2
17:30 1024 30.24 853 25.19 8.5 47.3 28 -8.9 16
17:35 1024 30.24 853 25.19 8.4 47.1 27 -9.3 15.2
17:40 1024 30.24 853 25.19 8.6 47.4 27 -9.4 15
17:45 1024 30.24 853 25.19 7.8 46 26 -10.7 12.8
17:50 1024 30.24 853 25.19 8.1 46.6 25 -10.6 12.9
17:55 1024 30.24 853 25.19 8.2 46.8 27 -9.8 14.4
18:00 1024 30.24 853 25.19 8.5 47.3 26 -9.7 14.5
18:05 1024 30.24 853 25.19 8.7 47.6 26 -9.8 14.4
18:10 1024 30.24 853 25.19 8.7 47.7 26 -9.5 14.9
18:15 1024 30.24 853 25.19 8.6 47.4 29 -8.3 17.1
18:20 1024 30.24 853 25.19 7.9 46.1 32 -7.9 17.7
18:25 1024 30.24 853 25.19 7.4 45.2 33 -8 17.6
18:30 1024 30.24 853 25.19 7 44.6 33 -8.1 17.5
18:35 1024 30.24 853 25.19 6.9 44.3 34 -8 17.6
18:40 1024 30.24 853 25.19 7.1 44.7 33 -8.1 17.4
18:45 1024 30.24 853 25.19 6.7 44.1 34 -8.1 17.5
18:50 1024 30.24 853 25.19 6.4 43.5 34 -8.4 16.8
18:55 1024 30.24 853 25.19 6.2 43.1 35 -8.1 17.5
19:00 1024 30.24 853 25.19 5.7 42.3 37 -8 17.7
19:05 1024 30.24 853 25.19 5.3 41.6 38 -7.8 18
19:10 1024 30.24 853 25.19 5 41.1 39 -7.9 17.7
19:15 1024 30.24 853 25.19 4.9 40.8 39 -7.8 17.9
19:20 1024 30.24 853 25.19 4.8 40.6 40 -7.8 18
19:25 1024 30.24 853 25.19 4.7 40.5 33 -10.3 13.5
19:30 1024 30.24 853 25.19 4.6 40.3 37 -8.8 16.2
19:35 1024 30.24 853 25.19 4.4 40 37 -8.8 16.1
19:40 1024 30.24 853 25.19 4.2 39.6 39 -8.5 16.7
19:45 1024 30.24 853 25.19 3.9 39.1 40 -8.5 16.7
19:50 1024 30.24 853 25.19 3.9 39 38 -9.2 15.4
19:55 1024 30.24 853 25.19 3.4 38.1 39 -9.2 15.4
20:00 1024 30.24 853 25.19 2.9 37.2 36 -10.8 12.5
20:05 1024 30.24 853 25.19 2.6 36.6 36 -11 12.1
20:10 1024 30.24 853 25.19 2.1 35.8 39 -10.5 13.1
20:15 1024 30.24 853 25.19 2.2 35.9 38 -10.8 12.6
20:20 1024 30.24 853 25.19 1.9 35.4 38 -10.9 12.5
20:25 1024 30.24 853 25.19 1.5 34.7 39 -10.9 12.3
20:30 1024 30.24 853 25.19 1.3 34.3 39 -11.2 11.8
20:35 1024 30.24 853 25.19 0.9 33.7 39 -11.5 11.2
20:40 1024 30.24 853 25.19 1.3 34.3 44 -9.7 14.5
20:45 1024 30.24 853 25.19 1.8 35.3 36 -11.6 11.2
20:50 1024 30.24 853 25.19 1.8 35.2 36 -11.8 10.8
20:55 1024 30.24 853 25.19 1.7 35 37 -11.5 11.3
21:00 1024 30.24 853 25.19 1.3 34.4 39 -11.3 11.7
21:05 1024 30.24 853 25.19 1 33.8 38 -11.7 10.9
21:10 1024 30.24 853 25.19 0.6 33.1 37 -12.4 9.7
21:15 1024 30.24 853 25.19 0.5 32.9 36 -12.9 8.7
21:20 1024 30.24 853 25.19 0.6 33 35 -13.2 8.2
21:25 1024 30.24 853 25.19 0.6 33.1 34 -13.5 7.8
21:30 1024 30.24 853 25.19 0.6 33.1 33 -13.9 6.9
21:35 1024 30.24 853 25.19 0.7 33.3 33 -13.9 6.9
21:40 1024 30.24 853 25.19 0.5 33 32 -14.3 6.2
21:45 1024 30.24 853 25.19 0.5 32.8 33 -14.2 6.5
21:50 1024 30.24 853 25.19 0.3 32.6 32 -14.5 5.9
21:55 1024 30.24 853 25.19 0.5 33 30 -15.1 4.8
22:00 1024 30.24 853 25.19 0.8 33.5 29 -15.3 4.4
22:05 1024 30.24 853 25.19 0.9 33.6 29 -15.3 4.4
22:10 1024 30.24 853 25.19 0.8 33.4 29 -15.3 4.5
22:15 1024 30.24 853 25.19 0.5 33 30 -15.1 4.7
22:20 1024 30.24 853 25.19 0.3 32.5 31 -15.1 4.8
22:25 1024 30.24 853 25.19 0.2 32.4 30 -15.4 4.4
22:30 1024 30.24 853 25.19 0.2 32.4 29 -15.7 3.8
22:35 1024 30.24 853 25.19 0.2 32.3 31 -15.2 4.7
22:40 1024 30.24 853 25.19 -0.1 31.8 31 -15.3 4.5
22:45 1024 30.24 853 25.19 -0.2 31.7 30 -15.9 3.4
22:50 1024 30.24 853 25.19 0.1 32.2 28 -16.2 2.8
22:55 1024 30.24 853 25.19 0.2 32.4 29 -16 3.2
23:00 1024 30.24 853 25.19 0.3 32.6 28 -16.2 2.8
23:05 1024 30.24 853 25.19 0.3 32.5 29 -15.9 3.5
23:10 1024 30.24 853 25.19 0.2 32.4 29 -15.8 3.5
23:15 1024 30.24 853 25.19 0 32 28 -16.3 2.7
23:20 1024 30.24 853 25.19 -0.2 31.6 30 -15.7 3.8
23:25 1024 30.24 853 25.19 -0.1 31.8 31 -15.5 4.2
23:30 1024 30.24 853 25.19 0.5 32.9 28 -16.1 3
23:35 1024 30.24 853 25.19 0.8 33.5 27 -16 3.2
23:40 1024 30.24 853 25.19 0.9 33.6 27 -16 3.2
23:45 1024 30.24 853 25.19 0.9 33.7 28 -15.6 4
23:50 1024 30.24 853 25.19 0.9 33.6 28 -15.7 3.8
23:55 1024 30.24 853 25.19 0.7 33.3 28 -15.6 3.8
24:00 1024 30.24 853 25.19 0.5 32.9 30 -15.4 4.3